Strona główna
METAR-TAF:

METAR-TAF

Lotnisko :

Platforma wiertnicza

Goeree Le, Holandia

Szerokość geograficzna: 51-55-33N, Długość geograficzna: 3-40-12E, wysokość: 19 m

Aktualna obserwacja pogody

Raport powstał 40 minut temu, godzina 01:25 UTC
Wiatr 19 kt od południowo-południowy zachód
Temperatura 14°C
Wilgotność 94%
Ciśnienie 1020 hPa
Widzialność 10 km lub więcej

METAR: EHSC 310125Z AUTO 21019KT 9999 ///////// 14/13 Q1020 W13/H14

czas: 03:05 (02:05 UTC)


TAF: brakujący

Obserwacja i prognoza pogody dla ponad 4000 lotnisk (raport METAR i TAF).

Dostępne stacje oznaczono żółtymi i czerwonymi punktami na mapie.

Najedź kursorem aby zobaczyć nazwę stacji.

Kliknij aby zobaczyć obserwacje i prognozy pogody.

Aby zmienić mapę: kliknij na zielony przycisk z czarnym krzyżykiem, aby powiększyć; na zielony przycisk z myślnikiem, aby pomniejszyć; na zielone strzałki, aby przejść do map sąsiednich.


METAR-TAF: